Time;durP1;ratioP1;P1;durP2;ratioP2;P2;SDS_P1;SDS_P2;PMS_P1;PMS_P2;Temp;Humidity;BMP_temperature;BMP_pressure;BME280_temperature;BME280_humidity;BME280_pressure;Samples;Min_cycle;Max_cycle;Signal;HPM_P1;HPM_P2
2022/08/25 00:01:25;;;;;;;71.40;68.10;;;24.70;58.30;;;;;;5092569;28;20393;-73
2022/08/25 00:03:51;;;;;;;72.23;68.93;;;24.70;58.30;;;;;;5074539;28;20952;-72
2022/08/25 00:06:17;;;;;;;70.45;67.22;;;24.70;58.30;;;;;;5074260;28;20398;-79
2022/08/25 00:08:43;;;;;;;74.07;70.65;;;24.70;58.30;;;;;;5094469;28;20378;-77
2022/08/25 00:11:13;;;;;;;76.15;72.70;;;24.70;58.30;;;;;;5094136;28;20496;-84
2022/08/25 00:13:45;;;;;;;71.15;67.85;;;24.70;58.20;;;;;;5095151;28;20401;-86
2022/08/25 00:16:13;;;;;;;69.75;66.55;;;24.70;58.30;;;;;;5093457;28;20461;-82
2022/08/25 00:18:40;;;;;;;67.90;64.80;;;24.70;58.30;;;;;;5094060;28;20395;-83
2022/08/25 00:21:06;;;;;;;68.43;65.25;;;24.70;58.30;;;;;;5093618;28;20397;-72
2022/08/25 00:23:32;;;;;;;69.28;66.07;;;24.70;58.30;;;;;;5079391;28;20469;-86
2022/08/25 00:25:57;;;;;;;72.88;69.57;;;24.70;58.20;;;;;;5096809;28;20444;-81
2022/08/25 00:28:23;;;;;;;70.60;67.33;;;24.70;58.90;;;;;;5092477;28;20393;-73
2022/08/25 00:30:49;;;;;;;69.03;65.82;;;24.70;58.30;;;;;;5092451;28;20831;-87
2022/08/25 00:33:16;;;;;;;68.10;65.00;;;24.60;58.20;;;;;;5092475;28;20388;-87
2022/08/25 00:35:42;;;;;;;69.25;65.85;;;24.60;58.40;;;;;;5092770;28;20863;-79
2022/08/25 00:38:09;;;;;;;66.05;62.92;;;24.60;58.40;;;;;;5092556;28;20420;-77
2022/08/25 00:40:35;;;;;;;70.63;67.33;;;24.70;58.50;;;;;;5091742;28;20413;-88
2022/08/25 00:43:01;;;;;;;64.00;60.90;;;24.60;58.40;;;;;;5092159;28;20453;-85
2022/08/25 00:45:27;;;;;;;70.18;66.88;;;24.60;58.30;;;;;;5091737;28;20944;-85
2022/08/25 00:47:53;;;;;;;70.20;66.90;;;24.60;58.20;;;;;;5092306;28;20391;-86
2022/08/25 00:50:21;;;;;;;73.77;70.37;;;24.60;58.20;;;;;;5074459;28;20433;-87
2022/08/25 00:52:50;;;;;;;69.32;66.03;;;24.60;58.20;;;;;;5093108;28;20421;-89
2022/08/25 00:55:25;;;;;;;71.07;67.80;;;24.60;58.20;;;;;;5077708;28;20386;-89
2022/08/25 00:57:59;;;;;;;69.93;66.63;;;24.60;58.20;;;;;;5094635;28;20879;-89
2022/08/25 01:00:32;;;;;;;62.58;59.67;;;24.60;58.70;;;;;;5097259;28;20420;-81
2022/08/25 01:02:58;;;;;;;69.20;65.93;;;24.60;58.10;;;;;;5093477;28;20378;-88
2022/08/25 01:05:25;;;;;;;66.75;63.65;;;24.60;58.10;;;;;;5095872;28;20387;-82
2022/08/25 01:07:54;;;;;;;69.78;66.57;;;24.60;58.10;;;;;;5096053;28;20386;-89
2022/08/25 01:10:21;;;;;;;69.03;65.82;;;24.60;58.10;;;;;;5098076;28;20439;-89
2022/08/25 01:12:49;;;;;;;71.10;67.70;;;24.60;58.10;;;;;;5077746;28;20409;-76
2022/08/25 01:15:15;;;;;;;63.83;60.88;;;24.60;58.10;;;;;;5095555;28;20871;-85
2022/08/25 01:17:49;;;;;;;70.03;66.82;;;24.60;58.20;;;;;;5096755;28;20385;-89
2022/08/25 01:20:17;;;;;;;71.03;67.83;;;24.60;58.10;;;;;;5098039;28;20550;-89
2022/08/25 01:22:43;;;;;;;75.05;71.63;;;24.60;58.10;;;;;;5096643;28;20396;-74
2022/08/25 01:25:21;;;;;;;70.97;67.67;;;24.50;58.00;;;;;;5097379;28;20382;-70
2022/08/25 01:27:47;;;;;;;74.60;71.10;;;24.50;58.00;;;;;;5077478;28;20500;-70
2022/08/25 01:30:13;;;;;;;74.13;70.65;;;24.50;58.10;;;;;;5096406;28;20401;-70
2022/08/25 01:32:39;;;;;;;73.00;69.50;;;24.60;58.10;;;;;;5095323;28;20406;-81
2022/08/25 01:35:05;;;;;;;69.07;65.87;;;24.50;58.00;;;;;;5095375;28;20386;-81
2022/08/25 01:37:33;;;;;;;73.55;70.20;;;24.50;58.00;;;;;;5097200;28;20469;-89
2022/08/25 01:39:59;;;;;;;70.00;66.78;;;24.50;58.00;;;;;;5097099;28;20418;-88
2022/08/25 01:42:40;;;;;;;66.67;63.57;;;24.50;58.00;;;;;;5096827;28;20381;-89
2022/08/25 01:45:07;;;;;;;70.35;67.15;;;24.50;58.00;;;;;;5096435;28;20406;-86
2022/08/25 01:47:32;;;;;;;68.30;65.13;;;24.50;58.00;;;;;;5077514;28;20405;-89
2022/08/25 01:49:58;;;;;;;68.68;65.55;;;24.50;58.00;;;;;;5076394;28;20398;-87
2022/08/25 01:52:24;;;;;;;70.17;66.97;;;24.50;58.10;;;;;;5077091;28;20394;-88
2022/08/25 01:54:49;;;;;;;68.22;65.03;;;24.50;58.00;;;;;;5076575;28;20386;-87
2022/08/25 01:57:15;;;;;;;67.38;64.28;;;24.50;58.00;;;;;;5095350;28;20389;-85
2022/08/25 01:59:41;;;;;;;67.47;64.37;;;24.50;58.00;;;;;;5096933;28;20418;-88
2022/08/25 02:02:07;;;;;;;66.72;63.53;;;24.40;57.90;;;;;;5076823;28;20401;-82
2022/08/25 02:04:33;;;;;;;70.10;66.87;;;24.50;58.00;;;;;;5097328;28;20390;-79
2022/08/25 02:07:01;;;;;;;63.83;60.72;;;24.50;58.00;;;;;;5093738;28;20386;-89
2022/08/25 02:09:27;;;;;;;65.75;62.63;;;24.40;57.90;;;;;;5078910;28;20433;-89
2022/08/25 02:11:52;;;;;;;66.15;63.05;;;24.50;58.00;;;;;;5096225;28;20580;-88
2022/08/25 02:14:18;;;;;;;61.57;58.60;;;24.40;57.90;;;;;;5095269;28;20954;-88
2022/08/25 02:16:47;;;;;;;64.57;61.53;;;24.40;57.90;;;;;;5095591;28;20379;-89
2022/08/25 02:19:15;;;;;;;64.27;61.27;;;24.40;57.90;;;;;;5095332;28;20477;-88
2022/08/25 02:21:41;;;;;;;63.42;60.42;;;24.40;57.90;;;;;;5076584;28;20426;-85
2022/08/25 02:24:07;;;;;;;66.70;63.60;;;24.40;57.90;;;;;;5095092;28;20374;-89
2022/08/25 02:26:35;;;;;;;65.30;62.20;;;24.40;58.20;;;;;;5079003;28;20398;-89
2022/08/25 02:29:02;;;;;;;64.90;61.90;;;24.40;57.90;;;;;;5095145;28;20394;-86
2022/08/25 02:31:28;;;;;;;64.63;61.63;;;24.40;57.80;;;;;;5094284;28;20390;-81
2022/08/25 02:33:55;;;;;;;65.33;62.30;;;24.40;57.90;;;;;;5094042;28;20397;-82
2022/08/25 02:36:22;;;;;;;64.00;61.00;;;24.40;57.90;;;;;;5096851;28;20390;-88
2022/08/25 02:38:48;;;;;;;67.37;64.23;;;24.40;57.90;;;;;;5093794;28;20390;-87
2022/08/25 02:41:19;;;;;;;66.05;63.03;;;24.40;57.80;;;;;;5095293;28;20406;-84
2022/08/25 02:43:46;;;;;;;61.47;58.58;;;24.40;57.90;;;;;;5095634;28;20477;-88
2022/08/25 02:46:12;;;;;;;61.35;58.38;;;24.40;57.80;;;;;;5096859;28;20398;-88
2022/08/25 02:48:39;;;;;;;62.90;59.90;;;24.30;57.70;;;;;;5093454;28;20398;-80
2022/08/25 02:51:05;;;;;;;63.38;60.38;;;24.40;57.80;;;;;;5076141;28;20923;-87
2022/08/25 02:53:32;;;;;;;61.88;58.97;;;24.30;57.70;;;;;;5093965;28;20389;-86
2022/08/25 02:55:58;;;;;;;60.65;57.75;;;24.30;57.70;;;;;;5076818;28;20393;-86
2022/08/25 02:58:24;;;;;;;63.13;60.13;;;24.30;57.70;;;;;;5076539;28;20447;-89
2022/08/25 03:00:50;;;;;;;65.32;62.25;;;24.40;57.80;;;;;;5093310;28;20414;-70
2022/08/25 03:03:17;;;;;;;66.77;63.70;;;24.30;57.60;;;;;;5093601;28;20386;-86
2022/08/25 03:05:43;;;;;;;66.78;63.67;;;24.30;58.00;;;;;;5093510;28;20389;-89
2022/08/25 03:08:10;;;;;;;68.70;65.50;;;24.30;58.00;;;;;;5095656;28;20431;-82
2022/08/25 03:10:36;;;;;;;74.03;70.43;;;24.30;58.90;;;;;;5095824;28;20386;-89
2022/08/25 03:13:02;;;;;;;69.73;66.23;;;24.40;60.10;;;;;;5094317;28;20378;-81
2022/08/25 03:15:27;;;;;;;64.57;61.47;;;24.40;59.90;;;;;;5093371;28;20382;-84
2022/08/25 03:17:54;;;;;;;93.60;89.20;;;24.40;58.70;;;;;;5093182;28;20400;-79
2022/08/25 03:20:21;;;;;;;79.15;75.22;;;24.40;61.00;;;;;;5092966;28;20871;-86
2022/08/25 03:22:47;;;;;;;104.57;99.55;;;24.40;60.80;;;;;;5093438;28;20389;-83
2022/08/25 03:27:58;;;;;;;110.35;105.05;;;24.50;61.10;;;;;;5093476;28;20382;-84
2022/08/25 03:30:24;;;;;;;104.80;99.40;;;24.60;61.00;;;;;;5093316;28;20382;-86
2022/08/25 03:32:50;;;;;;;105.50;100.50;;;24.60;61.00;;;;;;5092899;28;20386;-87
2022/08/25 03:35:15;;;;;;;109.25;103.97;;;24.60;61.40;;;;;;5093047;28;20882;-88
2022/08/25 03:37:41;;;;;;;102.80;97.72;;;24.60;61.90;;;;;;5092934;28;20393;-88
2022/08/25 03:40:09;;;;;;;111.77;106.53;;;24.60;61.90;;;;;;5092946;28;20418;-85
2022/08/25 03:42:40;;;;;;;111.78;106.32;;;24.60;61.70;;;;;;5092812;28;20381;-86
2022/08/25 03:45:07;;;;;;;102.03;95.88;;;24.60;61.50;;;;;;5092891;28;20525;-86
2022/08/25 03:47:33;;;;;;;113.03;107.15;;;24.70;60.70;;;;;;5092776;28;20386;-83
2022/08/25 03:49:59;;;;;;;107.70;101.32;;;24.60;61.50;;;;;;5092083;28;20753;-74
2022/08/25 03:52:25;;;;;;;114.07;108.45;;;24.60;61.40;;;;;;5092472;28;20389;-73
2022/08/25 03:54:50;;;;;;;92.10;87.37;;;24.60;60.90;;;;;;5092523;28;20480;-86
2022/08/25 03:57:16;;;;;;;84.88;80.57;;;24.60;60.00;;;;;;5092520;28;20394;-71
2022/08/25 03:59:41;;;;;;;88.40;83.87;;;24.60;59.60;;;;;;5092282;28;20408;-87
2022/08/25 04:02:07;;;;;;;83.97;79.63;;;24.50;59.60;;;;;;5074039;28;20429;-70
2022/08/25 04:04:33;;;;;;;74.68;70.57;;;24.50;59.50;;;;;;5092395;28;20465;-84
2022/08/25 04:06:59;;;;;;;71.53;67.55;;;24.50;59.00;;;;;;5074051;28;20485;-84
2022/08/25 04:09:25;;;;;;;70.40;66.60;;;24.50;58.80;;;;;;5091979;28;20800;-70
2022/08/25 04:11:51;;;;;;;64.60;61.15;;;24.40;58.40;;;;;;5091276;28;20409;-77
2022/08/25 04:14:17;;;;;;;72.65;68.68;;;24.40;58.30;;;;;;5091665;28;20723;-70
2022/08/25 04:16:43;;;;;;;66.28;62.65;;;24.40;58.00;;;;;;5092592;28;20463;-70
2022/08/25 04:19:10;;;;;;;74.43;70.67;;;24.40;57.60;;;;;;5092034;28;20486;-85
2022/08/25 04:21:37;;;;;;;71.10;67.30;;;24.40;57.40;;;;;;5092163;28;20382;-70
2022/08/25 04:24:04;;;;;;;69.38;65.35;;;24.30;56.90;;;;;;5092027;28;20386;-70
2022/08/25 04:26:34;;;;;;;65.40;61.92;;;24.30;56.80;;;;;;5092101;28;20933;-84
2022/08/25 04:29:02;;;;;;;63.63;60.33;;;24.30;56.60;;;;;;5073717;28;20736;-75
2022/08/25 04:31:29;;;;;;;62.85;59.45;;;24.20;56.60;;;;;;5074135;28;20409;-81
2022/08/25 04:33:55;;;;;;;63.83;60.58;;;24.30;56.50;;;;;;5073694;28;20507;-83
2022/08/25 04:36:21;;;;;;;59.72;56.25;;;24.20;56.40;;;;;;5073833;28;20408;-77
2022/08/25 04:38:48;;;;;;;57.47;54.10;;;24.20;56.10;;;;;;5094820;28;20580;-83
2022/08/25 04:41:16;;;;;;;57.35;54.25;;;24.10;55.70;;;;;;5096163;28;20891;-83
2022/08/25 04:43:43;;;;;;;59.83;56.63;;;24.10;55.50;;;;;;5096016;28;20382;-83
2022/08/25 04:46:19;;;;;;;64.43;61.13;;;24.10;55.50;;;;;;5095738;28;20390;-77
2022/08/25 04:48:45;;;;;;;63.58;60.25;;;24.00;55.50;;;;;;5077010;28;20480;-70
2022/08/25 04:51:14;;;;;;;58.40;55.07;;;24.00;55.50;;;;;;5077634;28;21045;-82
2022/08/25 04:53:40;;;;;;;59.05;55.53;;;24.00;55.80;;;;;;5095739;28;20385;-79
2022/08/25 04:56:12;;;;;;;64.10;60.33;;;24.00;56.00;;;;;;5077644;28;20394;-80
2022/08/25 04:58:39;;;;;;;64.22;60.55;;;23.90;56.10;;;;;;5095621;28;20893;-74
2022/08/25 05:01:11;;;;;;;60.93;57.70;;;23.90;56.20;;;;;;5077282;28;20436;-81
2022/08/25 05:03:37;;;;;;;63.60;60.30;;;23.90;56.10;;;;;;5095712;28;20385;-75
2022/08/25 05:06:04;;;;;;;64.47;61.17;;;23.90;55.80;;;;;;5095181;28;20421;-86
2022/08/25 05:08:31;;;;;;;59.05;55.95;;;23.90;56.00;;;;;;5077122;28;20382;-87
2022/08/25 05:10:57;;;;;;;59.80;56.55;;;23.90;56.20;;;;;;5094713;28;20382;-69
2022/08/25 05:13:24;;;;;;;65.70;62.33;;;23.90;56.30;;;;;;5094900;28;20863;-85
2022/08/25 05:15:58;;;;;;;60.22;57.00;;;23.90;56.30;;;;;;5095086;28;20392;-69
2022/08/25 05:18:25;;;;;;;58.38;55.33;;;23.90;56.40;;;;;;5094721;28;20498;-70
2022/08/25 05:20:55;;;;;;;63.35;60.15;;;23.90;56.40;;;;;;5094506;28;20928;-69
2022/08/25 05:23:23;;;;;;;61.40;58.40;;;23.90;56.50;;;;;;5094550;28;20462;-69
2022/08/25 05:25:50;;;;;;;61.50;58.50;;;23.90;56.50;;;;;;5094691;28;20400;-69
2022/08/25 05:28:19;;;;;;;62.33;59.22;;;23.90;56.60;;;;;;5094545;28;20378;-86
2022/08/25 05:30:48;;;;;;;63.70;60.60;;;23.90;56.60;;;;;;5094826;28;20390;-69
2022/08/25 05:33:15;;;;;;;66.30;63.03;;;23.90;56.60;;;;;;5094611;28;20389;-77
2022/08/25 05:35:41;;;;;;;60.50;57.55;;;23.90;56.70;;;;;;5094487;28;20396;-70
2022/08/25 05:38:07;;;;;;;62.30;59.30;;;23.90;56.80;;;;;;5094468;28;20477;-69
2022/08/25 05:40:33;;;;;;;62.70;59.60;;;23.90;56.80;;;;;;5094387;28;20421;-72
2022/08/25 05:42:59;;;;;;;58.45;55.45;;;23.90;56.90;;;;;;5094337;28;20379;-77
2022/08/25 05:45:24;;;;;;;59.22;56.33;;;23.90;57.00;;;;;;5094168;28;20785;-70
2022/08/25 05:47:50;;;;;;;63.10;60.10;;;23.90;57.00;;;;;;5094468;28;20435;-70
2022/08/25 05:50:17;;;;;;;61.67;58.57;;;23.90;57.00;;;;;;5094047;28;20895;-70
2022/08/25 05:52:43;;;;;;;61.78;58.67;;;23.90;57.00;;;;;;5076670;28;20398;-70
2022/08/25 05:55:09;;;;;;;60.85;57.95;;;23.90;57.10;;;;;;5093983;28;20390;-70
2022/08/25 05:57:36;;;;;;;62.40;59.28;;;23.90;57.10;;;;;;5094010;28;20389;-86
2022/08/25 06:00:04;;;;;;;60.75;57.85;;;23.90;57.10;;;;;;5094031;28;20425;-87
2022/08/25 06:02:47;;;;;;;62.85;59.80;;;23.90;57.20;;;;;;5076048;28;20390;-70
2022/08/25 06:05:21;;;;;;;60.70;57.78;;;23.90;57.20;;;;;;5093890;28;20771;-70
2022/08/25 06:07:50;;;;;;;61.63;58.63;;;23.90;57.30;;;;;;5093759;28;20907;-70
2022/08/25 06:10:17;;;;;;;63.53;60.53;;;23.90;57.30;;;;;;5093778;28;20390;-70
2022/08/25 06:12:44;;;;;;;62.53;59.53;;;23.90;57.40;;;;;;5093600;28;20390;-70
2022/08/25 06:15:16;;;;;;;58.42;55.63;;;23.90;57.40;;;;;;5093450;28;20473;-69
2022/08/25 06:17:42;;;;;;;64.93;61.83;;;23.90;57.50;;;;;;5093550;28;20413;-69
2022/08/25 06:20:23;;;;;;;67.38;64.22;;;23.90;57.50;;;;;;5093302;28;20441;-70
2022/08/25 06:22:49;;;;;;;64.53;61.53;;;23.90;57.50;;;;;;5093535;28;20403;-69
2022/08/25 06:25:17;;;;;;;63.13;60.13;;;23.90;57.60;;;;;;5093362;28;20390;-70
2022/08/25 06:27:44;;;;;;;68.22;65.03;;;23.90;57.60;;;;;;5093299;28;20386;-69
2022/08/25 06:30:14;;;;;;;67.77;64.47;;;23.90;57.60;;;;;;5093130;28;20389;-69
2022/08/25 06:32:42;;;;;;;65.15;62.05;;;23.90;57.60;;;;;;5093354;28;20413;-85
2022/08/25 06:35:10;;;;;;;67.65;64.40;;;23.90;57.60;;;;;;5093000;28;20414;-69
2022/08/25 06:37:36;;;;;;;68.35;65.15;;;23.90;58.20;;;;;;5093143;28;20933;-69
2022/08/25 06:40:05;;;;;;;65.30;62.20;;;23.90;57.70;;;;;;5074802;28;20915;-69
2022/08/25 06:42:31;;;;;;;68.97;65.80;;;23.90;57.60;;;;;;5074780;28;20382;-69
2022/08/25 06:44:56;;;;;;;66.68;63.55;;;23.90;57.70;;;;;;5092929;28;20382;-69
2022/08/25 06:47:22;;;;;;;67.90;64.75;;;23.90;57.70;;;;;;5092977;28;20879;-69
2022/08/25 06:49:47;;;;;;;64.03;60.93;;;23.90;57.70;;;;;;5092865;28;20398;-69
2022/08/25 06:52:14;;;;;;;69.40;66.20;;;23.90;57.70;;;;;;5074406;28;20396;-69
2022/08/25 06:54:40;;;;;;;69.82;66.40;;;23.90;57.70;;;;;;5092733;28;20397;-69
2022/08/25 06:57:06;;;;;;;68.07;64.88;;;24.00;57.80;;;;;;5092623;28;20439;-69
2022/08/25 06:59:33;;;;;;;67.32;64.15;;;23.90;57.70;;;;;;5092685;28;20481;-69
2022/08/25 07:02:00;;;;;;;69.50;66.30;;;23.90;57.70;;;;;;5091868;28;20443;-69
2022/08/25 07:04:26;;;;;;;67.55;64.38;;;23.90;57.80;;;;;;5092660;28;20382;-69
2022/08/25 07:06:52;;;;;;;68.70;65.40;;;23.90;57.80;;;;;;5092522;28;20394;-70
2022/08/25 07:09:17;;;;;;;66.53;63.42;;;23.90;57.80;;;;;;5092663;28;20390;-69
2022/08/25 07:11:44;;;;;;;68.40;65.13;;;23.90;57.80;;;;;;5092558;28;20415;-69
2022/08/25 07:14:13;;;;;;;64.50;61.40;;;24.00;57.80;;;;;;5092050;28;20432;-69
2022/08/25 07:16:39;;;;;;;70.95;67.65;;;24.00;57.90;;;;;;5092080;28;20774;-69
2022/08/25 07:19:06;;;;;;;67.68;64.47;;;24.00;57.80;;;;;;5092306;28;20393;-70
2022/08/25 07:21:34;;;;;;;73.95;70.55;;;24.00;57.90;;;;;;5074206;28;20390;-69
2022/08/25 07:24:02;;;;;;;71.28;67.97;;;24.00;57.90;;;;;;5074138;28;20397;-69
2022/08/25 07:26:30;;;;;;;72.97;69.60;;;24.00;57.90;;;;;;5092304;28;20382;-69
2022/08/25 07:28:58;;;;;;;70.15;66.95;;;24.00;57.90;;;;;;5074196;28;20394;-70
2022/08/25 07:31:24;;;;;;;69.35;66.13;;;24.00;57.90;;;;;;5074170;28;20414;-69
2022/08/25 07:36:34;;;;;;;73.35;69.97;;;24.00;58.00;;;;;;5092490;28;20439;-69
2022/08/25 07:39:04;;;;;;;71.07;67.68;;;24.00;58.00;;;;;;5074142;28;20397;-69
2022/08/25 07:41:32;;;;;;;72.25;68.95;;;24.00;58.00;;;;;;5074137;28;20512;-69
2022/08/25 07:43:58;;;;;;;73.40;70.05;;;24.00;58.00;;;;;;5092027;28;20472;-69
2022/08/25 07:46:24;;;;;;;72.15;68.85;;;24.00;58.00;;;;;;5073918;28;20497;-70
2022/08/25 07:48:49;;;;;;;75.35;71.95;;;24.00;58.00;;;;;;5091699;28;20425;-69
2022/08/25 07:51:16;;;;;;;70.67;67.37;;;24.00;58.00;;;;;;5092027;28;20386;-70
2022/08/25 07:53:41;;;;;;;71.75;68.53;;;24.00;58.00;;;;;;5092062;28;20386;-69
2022/08/25 07:56:13;;;;;;;71.35;68.05;;;24.00;58.10;;;;;;5073534;28;20396;-69
2022/08/25 07:58:40;;;;;;;66.65;63.55;;;24.00;58.10;;;;;;5073845;28;20386;-70
2022/08/25 08:01:07;;;;;;;73.90;70.50;;;24.00;58.10;;;;;;5091646;28;20414;-71
2022/08/25 08:03:35;;;;;;;71.43;68.13;;;24.10;58.10;;;;;;5073788;28;20770;-69
2022/08/25 08:06:07;;;;;;;70.32;67.13;;;24.00;58.10;;;;;;5091892;28;20393;-69
2022/08/25 08:08:35;;;;;;;72.32;69.03;;;24.00;58.10;;;;;;5091949;28;20752;-70
2022/08/25 08:11:01;;;;;;;73.05;69.70;;;24.10;58.20;;;;;;5091533;28;20390;-69
2022/08/25 08:13:27;;;;;;;74.70;71.30;;;24.00;58.10;;;;;;5077528;28;20405;-69
2022/08/25 08:15:52;;;;;;;74.23;70.73;;;24.10;58.20;;;;;;5077313;28;20505;-70
2022/08/25 08:18:18;;;;;;;75.18;71.78;;;24.10;58.70;;;;;;5111561;28;20390;-70
2022/08/25 08:20:46;;;;;;;75.17;71.67;;;24.10;58.20;;;;;;5095708;28;20417;-69
2022/08/25 08:23:12;;;;;;;73.03;69.72;;;24.10;58.20;;;;;;5095732;28;20871;-69
2022/08/25 08:25:38;;;;;;;74.10;70.70;;;24.10;58.10;;;;;;5077497;28;20394;-69
2022/08/25 08:28:04;;;;;;;75.30;71.73;;;24.10;58.10;;;;;;5095648;28;20488;-69
2022/08/25 08:30:30;;;;;;;72.00;68.70;;;24.10;58.10;;;;;;5077431;28;20394;-70
2022/08/25 08:32:55;;;;;;;73.13;69.70;;;24.10;58.20;;;;;;5095365;28;20382;-69
2022/08/25 08:35:21;;;;;;;72.60;69.28;;;24.10;58.20;;;;;;5095294;28;20433;-69
2022/08/25 08:37:46;;;;;;;73.43;70.03;;;24.10;58.20;;;;;;5095359;28;20390;-70
2022/08/25 08:40:18;;;;;;;69.45;66.15;;;24.10;58.20;;;;;;5076919;28;20409;-69
2022/08/25 08:43:05;;;;;;;67.70;64.50;;;24.10;58.20;;;;;;5077241;28;20439;-69
2022/08/25 08:45:49;;;;;;;72.28;68.88;;;24.10;58.20;;;;;;5095253;28;20464;-70
2022/08/25 08:48:39;;;;;;;69.43;66.22;;;24.20;58.20;;;;;;5076883;28;20418;-69
2022/08/25 08:51:14;;;;;;;69.28;66.07;;;24.20;58.30;;;;;;5095244;28;20405;-69
2022/08/25 08:54:12;;;;;;;68.97;65.75;;;24.20;58.30;;;;;;5095150;28;20390;-70
2022/08/25 08:56:41;;;;;;;70.03;66.72;;;24.10;58.20;;;;;;5095307;28;20899;-69
2022/08/25 08:59:13;;;;;;;76.53;73.03;;;24.20;58.10;;;;;;5076764;28;20626;-87
2022/08/25 09:01:45;;;;;;;74.07;70.68;;;24.10;58.20;;;;;;5094651;28;20390;-69
2022/08/25 09:04:20;;;;;;;72.70;69.40;;;24.20;58.20;;;;;;5076791;28;20390;-69
2022/08/25 09:06:48;;;;;;;71.88;68.57;;;24.20;58.20;;;;;;5094889;28;20398;-69
2022/08/25 09:09:41;;;;;;;71.53;68.25;;;24.20;58.30;;;;;;5076801;28;20383;-69
2022/08/25 09:12:12;;;;;;;74.55;71.15;;;24.20;58.50;;;;;;5107059;28;20759;-69
2022/08/25 09:15:15;;;;;;;78.05;74.45;;;24.20;58.60;;;;;;5094666;28;20393;-69
2022/08/25 09:17:49;;;;;;;82.90;79.00;;;24.20;58.60;;;;;;5012652;28;20863;-70
2022/08/25 09:20:42;;;;;;;77.38;73.82;;;24.20;58.70;;;;;;5066066;28;20425;-70
2022/08/25 09:23:26;;;;;;;82.57;78.88;;;24.20;58.70;;;;;;5075830;28;20394;-69
2022/08/25 09:26:11;;;;;;;84.18;80.28;;;24.20;58.80;;;;;;5094528;28;20382;-70
2022/08/25 09:28:40;;;;;;;80.27;76.53;;;24.20;58.80;;;;;;5094480;28;20486;-69
2022/08/25 09:31:20;;;;;;;85.07;81.25;;;24.20;58.80;;;;;;5094467;28;20374;-70
2022/08/25 09:33:46;;;;;;;85.68;81.72;;;24.20;58.90;;;;;;5076315;28;20398;-69
2022/08/25 09:36:11;;;;;;;84.47;80.57;;;24.20;58.90;;;;;;5075789;28;20378;-69
2022/08/25 09:38:37;;;;;;;83.88;80.05;;;24.30;58.90;;;;;;5076300;28;20398;-81
2022/08/25 09:41:04;;;;;;;85.55;81.65;;;24.30;58.90;;;;;;5076091;28;20414;-69
2022/08/25 09:43:35;;;;;;;86.97;83.03;;;24.30;59.00;;;;;;5094268;28;20382;-69
2022/08/25 09:46:14;;;;;;;83.65;79.82;;;24.30;59.00;;;;;;5093969;28;20382;-70
2022/08/25 09:48:52;;;;;;;88.38;84.35;;;24.20;59.00;;;;;;5075719;28;20416;-69
2022/08/25 09:51:33;;;;;;;86.18;82.18;;;24.30;59.00;;;;;;5075866;28;20390;-70
2022/08/25 09:54:01;;;;;;;90.25;86.15;;;24.30;58.90;;;;;;5094130;28;20394;-70
2022/08/25 09:56:30;;;;;;;84.60;80.70;;;24.30;59.00;;;;;;5094335;28;20378;-80
2022/08/25 09:59:35;;;;;;;88.68;84.68;;;24.30;59.00;;;;;;5076145;28;20383;-69
2022/08/25 10:02:28;;;;;;;87.55;83.55;;;24.30;59.00;;;;;;5093901;28;20434;-69
2022/08/25 10:04:55;;;;;;;90.55;86.38;;;24.30;59.10;;;;;;5075875;28;20386;-70
2022/08/25 10:07:32;;;;;;;87.10;83.10;;;24.30;59.00;;;;;;5094328;28;20394;-84
2022/08/25 10:10:00;;;;;;;87.95;83.97;;;24.30;59.00;;;;;;5075840;28;20489;-75
2022/08/25 10:12:38;;;;;;;94.40;90.10;;;24.30;59.00;;;;;;5076040;28;20390;-69
2022/08/25 10:15:26;;;;;;;94.55;90.25;;;24.30;59.00;;;;;;5093411;28;20386;-87
2022/08/25 10:17:53;;;;;;;88.45;84.35;;;24.30;58.90;;;;;;5074902;28;20386;-71
2022/08/25 10:20:23;;;;;;;94.15;89.85;;;24.30;59.00;;;;;;5109601;28;20435;-79
2022/08/25 10:22:50;;;;;;;92.80;88.40;;;24.40;59.10;;;;;;5075480;28;20441;-69
2022/08/25 10:25:21;;;;;;;89.35;85.25;;;24.30;59.10;;;;;;5093392;28;20534;-70
2022/08/25 10:28:14;;;;;;;87.97;83.93;;;24.30;59.00;;;;;;5093904;28;20371;-69
2022/08/25 10:30:57;;;;;;;88.22;84.13;;;24.30;59.00;;;;;;5093819;28;20470;-69
2022/08/25 10:33:37;;;;;;;92.75;88.47;;;24.30;59.00;;;;;;5094058;28;20412;-86
2022/08/25 10:36:26;;;;;;;94.25;89.93;;;24.40;59.20;;;;;;5093172;28;20390;-69
2022/08/25 10:38:56;;;;;;;96.68;92.13;;;24.30;59.00;;;;;;5054962;28;20899;-70
2022/08/25 10:41:43;;;;;;;96.97;92.53;;;24.40;59.10;;;;;;5093325;28;20418;-88
2022/08/25 10:47:27;;;;;;;91.32;87.07;;;24.40;59.20;;;;;;5093354;28;20377;-69
2022/08/25 10:50:22;;;;;;;91.53;87.18;;;24.40;59.10;;;;;;5092923;28;20410;-70
2022/08/25 10:53:18;;;;;;;88.63;84.50;;;24.40;59.10;;;;;;5089611;28;20883;-69
2022/08/25 10:56:08;;;;;;;97.20;92.72;;;24.40;59.80;;;;;;5091659;28;20394;-69
2022/08/25 10:58:43;;;;;;;101.32;96.53;;;24.40;59.40;;;;;;5074828;28;20436;-70
2022/08/25 11:01:17;;;;;;;100.47;95.82;;;24.40;59.40;;;;;;5092742;28;20417;-70
2022/08/25 11:04:06;;;;;;;98.07;93.57;;;24.40;59.40;;;;;;5092875;28;20869;-70
2022/08/25 11:07:04;;;;;;;93.80;89.40;;;24.40;59.30;;;;;;5092335;28;20382;-69
2022/08/25 11:09:38;;;;;;;103.30;98.47;;;24.40;59.30;;;;;;5088631;28;20429;-70
2022/08/25 11:12:12;;;;;;;100.22;95.63;;;24.40;59.20;;;;;;5093072;28;20370;-70
2022/08/25 11:14:45;;;;;;;97.57;93.07;;;24.40;59.40;;;;;;5092687;28;20382;-80
2022/08/25 11:17:38;;;;;;;96.95;92.38;;;24.40;59.30;;;;;;5074320;28;20386;-70
2022/08/25 11:20:12;;;;;;;100.15;95.45;;;24.40;59.30;;;;;;5092179;28;20398;-69
2022/08/25 11:23:04;;;;;;;100.38;95.60;;;24.40;59.30;;;;;;5074256;28;20902;-69
2022/08/25 11:25:36;;;;;;;96.32;91.82;;;24.40;59.30;;;;;;5092492;28;20405;-91
2022/08/25 11:28:13;;;;;;;95.95;91.32;;;24.40;59.40;;;;;;5092414;28;20393;-70
2022/08/25 11:30:40;;;;;;;98.53;93.82;;;24.40;59.50;;;;;;5092410;28;20390;-69
2022/08/25 11:33:06;;;;;;;94.82;90.35;;;24.40;59.30;;;;;;5073966;28;20389;-69
2022/08/25 11:35:45;;;;;;;97.68;93.07;;;24.50;59.50;;;;;;5092039;28;20872;-69
2022/08/25 11:38:23;;;;;;;98.28;93.65;;;24.50;59.30;;;;;;5074199;28;20428;-70
2022/08/25 11:40:58;;;;;;;95.05;90.50;;;24.40;59.30;;;;;;5092329;28;20914;-69
2022/08/25 11:43:41;;;;;;;95.50;91.00;;;24.50;59.40;;;;;;5074306;28;20393;-70
2022/08/25 11:46:17;;;;;;;96.03;91.43;;;24.50;59.20;;;;;;5078678;28;20409;-70
2022/08/25 11:48:59;;;;;;;91.90;87.40;;;24.50;58.90;;;;;;5080281;28;20497;-70
2022/08/25 11:51:46;;;;;;;92.47;88.13;;;24.50;59.00;;;;;;5092166;28;20429;-71
2022/08/25 11:54:54;;;;;;;91.78;87.03;;;24.50;58.90;;;;;;5073857;28;20401;-70
2022/08/25 11:57:27;;;;;;;91.57;87.18;;;24.50;58.90;;;;;;5086889;28;20399;-69
2022/08/25 11:59:56;;;;;;;90.38;86.07;;;24.50;58.90;;;;;;5091914;28;20421;-70
2022/08/25 12:02:35;;;;;;;86.57;82.38;;;24.50;58.70;;;;;;5074101;28;20386;-89
2022/08/25 12:05:04;;;;;;;90.75;86.35;;;24.50;58.80;;;;;;5091665;28;20381;-73
2022/08/25 12:10:55;;;;;;;93.35;88.90;;;24.50;58.80;;;;;;5089329;28;20940;-70
2022/08/25 12:13:50;;;;;;;93.57;89.18;;;24.50;59.30;;;;;;5073659;28;20386;-70
2022/08/25 12:17:03;;;;;;;91.13;86.65;;;24.50;58.80;;;;;;5092024;28;20394;-70
2022/08/25 12:19:29;;;;;;;90.63;86.25;;;24.50;58.90;;;;;;5073898;28;20431;-70
2022/08/25 12:22:17;;;;;;;90.85;86.53;;;24.50;59.00;;;;;;5091874;28;20390;-70
2022/08/25 12:24:43;;;;;;;92.32;87.85;;;24.50;58.90;;;;;;5073572;28;20386;-69
2022/08/25 12:27:19;;;;;;;90.53;86.25;;;24.60;58.80;;;;;;5073587;28;20485;-70
2022/08/25 12:30:00;;;;;;;92.43;87.93;;;24.60;58.80;;;;;;5073787;28;20386;-89
2022/08/25 12:32:57;;;;;;;88.30;84.10;;;24.60;58.90;;;;;;5091881;28;20464;-70
2022/08/25 12:35:48;;;;;;;90.13;85.70;;;24.60;58.90;;;;;;5073284;28;20386;-70
2022/08/25 12:38:36;;;;;;;96.60;92.00;;;24.50;58.70;;;;;;5073573;28;20387;-70
2022/08/25 12:41:14;;;;;;;96.53;91.93;;;24.60;59.00;;;;;;5074061;28;20422;-70
2022/08/25 12:43:43;;;;;;;97.82;93.10;;;24.60;59.50;;;;;;5061821;28;20758;-86
2022/08/25 12:46:25;;;;;;;96.05;91.45;;;24.50;58.80;;;;;;5072849;28;20374;-69
2022/08/25 12:48:57;;;;;;;99.28;94.53;;;24.60;58.90;;;;;;5091326;28;20406;-74
2022/08/25 12:51:37;;;;;;;98.40;93.63;;;24.60;58.90;;;;;;5090581;28;20390;-70
2022/08/25 12:54:27;;;;;;;92.90;88.50;;;24.60;58.90;;;;;;5091432;28;20386;-69
2022/08/25 12:56:57;;;;;;;92.30;87.80;;;24.60;58.80;;;;;;5073202;28;20422;-69